Time;durP1;ratioP1;P1;durP2;ratioP2;P2;SDS_P1;SDS_P2;PMS_P1;PMS_P2;Temp;Humidity;BMP_temperature;BMP_pressure;BME280_temperature;BME280_humidity;BME280_pressure;Samples;Min_cycle;Max_cycle;Signal;HPM_P1;HPM_P2
2022/01/25 05:02:05;;;;;;;66.10;26.90;;;4.90;99.90;;;;;;5263218;23;20247;-68
2022/01/25 05:04:37;;;;;;;63.35;26.73;;;4.90;99.90;;;;;;4966218;28;20211;-69
2022/01/25 05:07:15;;;;;;;62.83;26.10;;;4.80;99.90;;;;;;4973969;28;20283;-67
2022/01/25 05:09:44;;;;;;;55.42;25.45;;;4.90;99.90;;;;;;4974875;28;20224;-67
2022/01/25 05:12:12;;;;;;;60.30;27.13;;;4.80;99.90;;;;;;4975343;28;20608;-66
2022/01/25 05:14:55;;;;;;;59.97;27.70;;;4.80;99.90;;;;;;4975304;28;20205;-68
2022/01/25 05:17:32;;;;;;;56.75;25.05;;;4.90;99.90;;;;;;4973762;28;20209;-68
2022/01/25 05:22:39;;;;;;;54.58;24.33;;;4.80;99.90;;;;;;4959770;28;20227;-68
2022/01/25 05:25:07;;;;;;;61.67;26.10;;;4.90;99.90;;;;;;4974333;28;20218;-67
2022/01/25 05:27:33;;;;;;;66.45;26.90;;;4.90;99.90;;;;;;4969172;28;20692;-67
2022/01/25 05:30:00;;;;;;;54.20;23.80;;;4.80;99.90;;;;;;4961250;28;20244;-66
2022/01/25 05:32:32;;;;;;;59.65;26.10;;;4.80;99.90;;;;;;4956883;28;20225;-67
2022/01/25 05:34:59;;;;;;;53.28;26.00;;;4.80;99.90;;;;;;4973583;28;20578;-68
2022/01/25 05:37:25;;;;;;;66.85;28.65;;;4.80;99.90;;;;;;4967546;28;20213;-67
2022/01/25 05:39:52;;;;;;;65.43;28.88;;;4.80;99.90;;;;;;4959519;28;20229;-67
2022/01/25 05:45:19;;;;;;;59.15;27.25;;;4.80;99.90;;;;;;4959760;28;20280;-68
2022/01/25 05:47:48;;;;;;;64.95;28.33;;;4.80;99.90;;;;;;4962269;28;20192;-68
2022/01/25 05:50:15;;;;;;;69.53;27.85;;;4.80;99.90;;;;;;4972739;28;20303;-68
2022/01/25 05:52:42;;;;;;;67.35;26.67;;;4.80;99.90;;;;;;4972316;28;20212;-69
2022/01/25 05:55:10;;;;;;;68.07;28.73;;;4.80;99.90;;;;;;4955523;28;20236;-68
2022/01/25 05:57:37;;;;;;;59.00;26.30;;;4.80;99.90;;;;;;4963016;28;20205;-67
2022/01/25 06:00:06;;;;;;;78.22;30.67;;;4.80;99.90;;;;;;4954791;28;20220;-68
2022/01/25 06:02:34;;;;;;;67.20;28.10;;;4.80;99.90;;;;;;4959753;28;20244;-68
2022/01/25 06:05:03;;;;;;;59.78;26.63;;;4.80;99.90;;;;;;4955115;28;20324;-69
2022/01/25 06:07:30;;;;;;;59.88;25.92;;;4.70;99.90;;;;;;4970841;28;20213;-69
2022/01/25 06:09:56;;;;;;;61.28;27.63;;;4.70;99.90;;;;;;4973190;28;20223;-67
2022/01/25 06:12:23;;;;;;;69.13;27.65;;;4.70;99.90;;;;;;4963878;28;20225;-68
2022/01/25 06:14:50;;;;;;;65.03;27.00;;;4.70;99.90;;;;;;4955300;28;20506;-68
2022/01/25 06:17:17;;;;;;;61.40;27.13;;;4.80;99.90;;;;;;4972556;28;20200;-68
2022/01/25 06:19:44;;;;;;;76.18;30.77;;;4.80;99.90;;;;;;4972829;28;20204;-67
2022/01/25 06:22:12;;;;;;;64.63;27.48;;;4.80;99.90;;;;;;4965755;28;20225;-69
2022/01/25 06:24:39;;;;;;;65.22;27.85;;;4.70;99.90;;;;;;4954781;28;20231;-68
2022/01/25 06:27:06;;;;;;;62.58;28.42;;;4.80;99.90;;;;;;4964926;28;20209;-68
2022/01/25 06:29:33;;;;;;;70.07;28.27;;;4.80;99.90;;;;;;4954261;28;20225;-68
2022/01/25 06:32:00;;;;;;;68.03;28.42;;;4.70;99.90;;;;;;4958105;28;20296;-69
2022/01/25 06:34:27;;;;;;;56.88;24.63;;;4.70;99.90;;;;;;4973247;28;20627;-69
2022/01/25 06:36:53;;;;;;;59.25;26.58;;;4.70;99.90;;;;;;4957928;28;20240;-68
2022/01/25 06:39:21;;;;;;;71.68;28.73;;;4.70;99.90;;;;;;4954374;28;20209;-69
2022/01/25 06:41:48;;;;;;;71.68;28.98;;;4.70;99.90;;;;;;4955128;28;20267;-68
2022/01/25 06:44:15;;;;;;;66.55;27.10;;;4.70;99.90;;;;;;4973716;28;20307;-69
2022/01/25 06:46:42;;;;;;;59.42;27.10;;;4.70;99.90;;;;;;4959977;28;20236;-69
2022/01/25 06:49:08;;;;;;;75.30;31.15;;;4.70;99.90;;;;;;4973132;28;20212;-68
2022/01/25 06:51:35;;;;;;;60.72;25.05;;;4.70;99.90;;;;;;4972845;28;20236;-68
2022/01/25 06:54:02;;;;;;;73.72;28.85;;;4.70;99.90;;;;;;4971057;28;20205;-67
2022/01/25 06:56:30;;;;;;;62.08;29.98;;;4.70;99.90;;;;;;4972394;28;20217;-68
2022/01/25 06:58:57;;;;;;;63.08;26.80;;;4.70;99.90;;;;;;4968918;28;20205;-69
2022/01/25 07:01:24;;;;;;;63.10;27.00;;;4.70;99.90;;;;;;4971296;28;20232;-68
2022/01/25 07:03:50;;;;;;;64.05;26.00;;;4.70;99.90;;;;;;4970153;28;20208;-68
2022/01/25 07:06:17;;;;;;;71.25;30.25;;;4.70;99.90;;;;;;4963328;28;20206;-68
2022/01/25 07:08:45;;;;;;;68.03;28.33;;;4.70;99.90;;;;;;4968277;28;20208;-68
2022/01/25 07:11:12;;;;;;;66.85;27.70;;;4.70;99.90;;;;;;4972046;28;20629;-68
2022/01/25 07:13:40;;;;;;;68.47;30.80;;;4.70;99.90;;;;;;4969231;28;20213;-68
2022/01/25 07:16:07;;;;;;;65.95;27.40;;;4.70;99.90;;;;;;4969628;28;20562;-68
2022/01/25 07:18:33;;;;;;;70.18;28.55;;;4.70;99.90;;;;;;4968357;28;20204;-68
2022/01/25 07:21:00;;;;;;;63.70;27.92;;;4.70;99.90;;;;;;4967199;28;20668;-68
2022/01/25 07:23:27;;;;;;;66.03;27.73;;;4.70;99.90;;;;;;4960849;28;20267;-68
2022/01/25 07:25:54;;;;;;;70.82;28.98;;;4.70;99.90;;;;;;4955394;28;20217;-69
2022/01/25 07:28:21;;;;;;;69.88;28.42;;;4.70;99.90;;;;;;4960584;28;20220;-68
2022/01/25 07:30:49;;;;;;;66.10;27.25;;;4.70;99.90;;;;;;4971559;28;20224;-68
2022/01/25 07:33:16;;;;;;;60.65;27.55;;;4.70;99.90;;;;;;4964018;28;20251;-68
2022/01/25 07:35:45;;;;;;;73.93;32.35;;;4.70;99.90;;;;;;4957239;28;20229;-68
2022/01/25 07:38:14;;;;;;;61.42;28.42;;;4.70;99.90;;;;;;4964909;28;20200;-67
2022/01/25 07:40:42;;;;;;;69.28;28.80;;;4.70;99.90;;;;;;4971722;28;20223;-68
2022/01/25 07:43:08;;;;;;;54.70;24.95;;;4.70;99.90;;;;;;4965956;28;20662;-68
2022/01/25 07:45:36;;;;;;;63.38;29.23;;;4.70;99.90;;;;;;4953561;28;20768;-68
2022/01/25 07:48:05;;;;;;;62.03;30.75;;;4.70;99.90;;;;;;4957663;28;20204;-70
2022/01/25 07:50:32;;;;;;;65.18;30.38;;;4.70;99.90;;;;;;4971588;28;20294;-69
2022/01/25 07:52:59;;;;;;;65.65;29.55;;;4.80;99.90;;;;;;4968882;28;20204;-69
2022/01/25 07:55:25;;;;;;;65.57;27.80;;;4.70;99.90;;;;;;4954865;28;20261;-67
2022/01/25 07:57:52;;;;;;;63.72;27.02;;;4.80;99.90;;;;;;4967833;28;20205;-67
2022/01/25 08:00:20;;;;;;;68.78;29.48;;;4.70;99.90;;;;;;4952614;28;20217;-68
2022/01/25 08:02:48;;;;;;;69.28;32.33;;;4.80;99.90;;;;;;4958934;28;20243;-68
2022/01/25 08:05:18;;;;;;;68.35;29.83;;;4.80;99.90;;;;;;4970343;28;20355;-68
2022/01/25 08:07:45;;;;;;;59.13;28.80;;;4.80;99.90;;;;;;4963740;28;20284;-68
2022/01/25 08:10:13;;;;;;;70.88;29.25;;;4.80;99.90;;;;;;4971387;28;20235;-69
2022/01/25 08:12:40;;;;;;;61.08;29.02;;;4.80;99.90;;;;;;4970811;28;20215;-68
2022/01/25 08:15:08;;;;;;;71.65;29.67;;;4.80;99.90;;;;;;4971163;28;20697;-69
2022/01/25 08:17:35;;;;;;;62.70;27.98;;;4.80;99.90;;;;;;4959777;28;20220;-68
2022/01/25 08:20:03;;;;;;;75.40;30.08;;;4.80;99.90;;;;;;4969750;28;20618;-67
2022/01/25 08:22:33;;;;;;;75.00;29.55;;;4.80;99.90;;;;;;4971662;28;20228;-68
2022/01/25 08:24:59;;;;;;;74.75;29.70;;;4.80;99.90;;;;;;4969829;28;20212;-67
2022/01/25 08:27:26;;;;;;;62.05;28.27;;;4.80;99.90;;;;;;4954789;28;20279;-66
2022/01/25 08:29:54;;;;;;;67.45;31.05;;;4.80;99.90;;;;;;4970170;28;20625;-67
2022/01/25 08:32:21;;;;;;;61.88;25.63;;;4.80;99.90;;;;;;4952831;28;20230;-67
2022/01/25 08:34:48;;;;;;;77.55;28.77;;;4.80;99.90;;;;;;4970245;28;20620;-68
2022/01/25 08:37:15;;;;;;;62.15;29.65;;;4.80;99.90;;;;;;4962351;28;20691;-68
2022/01/25 08:39:44;;;;;;;74.72;32.50;;;4.80;99.90;;;;;;4956007;28;20212;-67
2022/01/25 08:42:11;;;;;;;70.20;27.63;;;4.80;99.90;;;;;;4964880;28;20232;-67
2022/01/25 08:44:39;;;;;;;64.80;29.50;;;4.80;99.90;;;;;;4950969;28;20205;-68
2022/01/25 08:47:07;;;;;;;66.53;27.10;;;4.80;99.90;;;;;;4964167;28;20303;-67
2022/01/25 08:49:34;;;;;;;62.35;26.48;;;4.80;99.90;;;;;;4968864;28;20205;-68
2022/01/25 08:52:01;;;;;;;74.53;28.80;;;4.80;99.90;;;;;;4955290;28;20284;-68
2022/01/25 08:54:28;;;;;;;75.30;28.08;;;4.80;99.90;;;;;;4950430;28;20217;-69
2022/01/25 08:56:56;;;;;;;71.38;30.08;;;4.80;99.90;;;;;;4954659;28;20741;-68
2022/01/25 08:59:23;;;;;;;67.53;28.15;;;4.80;99.90;;;;;;4969077;28;20650;-69
2022/01/25 09:01:50;;;;;;;73.30;32.03;;;4.90;99.90;;;;;;4967945;28;20228;-69
2022/01/25 09:04:17;;;;;;;65.72;29.13;;;4.90;99.90;;;;;;4965442;28;20270;-68
2022/01/25 09:06:44;;;;;;;61.08;27.20;;;4.90;99.90;;;;;;4961144;28;20682;-68
2022/01/25 09:09:11;;;;;;;63.67;29.27;;;4.90;99.90;;;;;;4954594;28;20213;-67
2022/01/25 09:11:40;;;;;;;65.25;29.75;;;4.90;99.90;;;;;;4967544;28;20236;-67
2022/01/25 09:14:09;;;;;;;62.25;30.08;;;4.90;99.90;;;;;;4971520;28;20355;-68
2022/01/25 09:16:37;;;;;;;66.45;27.65;;;4.90;99.90;;;;;;4970948;28;20657;-67
2022/01/25 09:19:05;;;;;;;65.97;28.25;;;5.00;99.90;;;;;;4973125;28;20282;-67
2022/01/25 09:21:32;;;;;;;69.22;26.55;;;5.00;99.90;;;;;;4972017;28;20228;-67
2022/01/25 09:23:58;;;;;;;69.40;28.30;;;5.00;99.90;;;;;;4974885;28;20212;-67
2022/01/25 09:26:25;;;;;;;65.15;28.48;;;5.00;99.90;;;;;;4969824;28;20571;-68
2022/01/25 09:28:54;;;;;;;60.92;26.95;;;5.00;99.90;;;;;;4955596;28;20213;-68
2022/01/25 09:31:23;;;;;;;66.20;26.58;;;5.00;99.90;;;;;;4958483;28;20671;-67
2022/01/25 09:33:50;;;;;;;68.00;27.95;;;5.00;99.90;;;;;;4955053;28;20355;-67
2022/01/25 09:36:17;;;;;;;63.20;26.10;;;5.10;99.90;;;;;;4960973;28;20201;-68
2022/01/25 09:38:44;;;;;;;61.63;26.15;;;5.10;99.90;;;;;;4966685;28;20304;-68
2022/01/25 09:41:11;;;;;;;60.22;27.15;;;5.10;99.90;;;;;;4969045;28;20217;-68
2022/01/25 09:43:38;;;;;;;56.92;27.58;;;5.10;99.90;;;;;;4961588;28;20224;-66
2022/01/25 09:46:04;;;;;;;61.10;26.65;;;5.10;99.90;;;;;;4971465;28;20259;-67
2022/01/25 09:48:33;;;;;;;60.95;26.20;;;5.20;99.90;;;;;;4972839;28;20212;-67
2022/01/25 09:51:00;;;;;;;58.15;28.20;;;5.20;99.90;;;;;;4970754;28;20240;-67
2022/01/25 09:53:29;;;;;;;61.90;27.08;;;5.30;99.90;;;;;;4973706;28;20213;-68
2022/01/25 09:55:56;;;;;;;56.65;25.48;;;5.30;99.90;;;;;;4970740;28;20206;-68
2022/01/25 09:58:23;;;;;;;68.68;28.67;;;5.30;99.90;;;;;;4974258;28;20270;-68
2022/01/25 10:00:55;;;;;;;65.40;27.00;;;5.30;99.90;;;;;;4980874;28;20229;-68
2022/01/25 10:03:26;;;;;;;67.30;27.27;;;5.40;99.90;;;;;;4955060;28;20300;-68
2022/01/25 10:05:58;;;;;;;66.25;28.02;;;5.40;99.90;;;;;;4964653;28;20347;-68
2022/01/25 10:08:27;;;;;;;55.90;26.70;;;5.40;99.90;;;;;;4973340;28;20196;-68
2022/01/25 10:10:56;;;;;;;65.20;27.48;;;5.50;99.90;;;;;;4971730;28;20228;-68
2022/01/25 10:13:24;;;;;;;53.45;25.92;;;5.50;99.90;;;;;;4959269;28;20256;-68
2022/01/25 10:15:57;;;;;;;57.55;24.70;;;5.50;99.90;;;;;;4955174;28;20210;-67
2022/01/25 10:18:36;;;;;;;65.30;28.15;;;5.50;99.90;;;;;;4968561;28;20205;-67
2022/01/25 10:21:04;;;;;;;54.53;25.08;;;5.60;99.90;;;;;;4972612;28;20345;-67
2022/01/25 10:23:32;;;;;;;61.67;25.52;;;5.60;99.90;;;;;;4958529;28;20283;-68
2022/01/25 10:26:02;;;;;;;58.17;24.58;;;5.60;99.90;;;;;;4954871;28;20684;-67
2022/01/25 10:28:30;;;;;;;54.38;24.70;;;5.60;99.90;;;;;;4968411;28;20674;-67
2022/01/25 10:31:00;;;;;;;59.35;26.48;;;5.60;99.90;;;;;;4960331;28;20847;-68
2022/01/25 10:33:32;;;;;;;55.65;26.20;;;5.60;99.90;;;;;;4960332;28;20204;-68
2022/01/25 10:36:01;;;;;;;52.83;23.67;;;5.60;99.90;;;;;;4973360;28;20215;-67
2022/01/25 10:38:32;;;;;;;58.63;25.08;;;5.60;99.90;;;;;;4965356;28;20216;-67
2022/01/25 10:41:05;;;;;;;52.42;24.27;;;5.60;99.90;;;;;;4954873;28;20293;-67
2022/01/25 10:43:32;;;;;;;54.30;24.23;;;5.70;99.90;;;;;;4961074;28;20205;-66
2022/01/25 10:46:17;;;;;;;53.60;25.30;;;5.70;99.90;;;;;;4954831;28;20205;-68
2022/01/25 10:48:48;;;;;;;53.45;22.67;;;5.70;99.90;;;;;;4967833;28;20216;-67
2022/01/25 10:51:18;;;;;;;50.67;23.42;;;5.70;99.90;;;;;;4964647;28;20291;-67
2022/01/25 10:53:56;;;;;;;51.72;26.20;;;5.70;99.90;;;;;;4959088;28;20592;-68
2022/01/25 10:56:24;;;;;;;65.85;26.35;;;5.70;99.90;;;;;;4972062;28;20251;-67
2022/01/25 10:58:51;;;;;;;53.67;22.63;;;5.80;99.90;;;;;;4960813;28;20307;-66
2022/01/25 11:01:31;;;;;;;57.58;25.92;;;5.80;99.90;;;;;;4968944;28;20291;-68
2022/01/25 11:04:05;;;;;;;51.15;25.17;;;5.80;99.90;;;;;;4950474;29;20287;-67
2022/01/25 11:06:32;;;;;;;44.60;24.27;;;5.80;99.90;;;;;;4957956;28;20634;-66
2022/01/25 11:09:06;;;;;;;56.17;23.90;;;5.80;99.90;;;;;;4953549;28;20558;-68
2022/01/25 11:11:38;;;;;;;39.83;20.63;;;5.80;99.90;;;;;;4966193;28;20228;-68
2022/01/25 11:16:52;;;;;;;55.55;23.00;;;5.80;99.90;;;;;;4964684;28;20830;-67
2022/01/25 11:19:20;;;;;;;60.63;24.17;;;5.80;99.90;;;;;;4976427;28;20294;-67
2022/01/25 11:21:48;;;;;;;51.50;22.77;;;5.80;99.90;;;;;;4971860;28;20283;-68
2022/01/25 11:24:18;;;;;;;51.72;21.38;;;5.90;99.90;;;;;;4961721;28;20227;-68
2022/01/25 11:26:46;;;;;;;53.65;23.45;;;5.90;99.90;;;;;;4965498;28;20252;-68
2022/01/25 11:29:14;;;;;;;43.28;21.02;;;5.90;99.90;;;;;;4957210;28;20263;-67
2022/01/25 11:31:43;;;;;;;52.05;22.05;;;5.90;99.90;;;;;;4969961;28;20225;-67
2022/01/25 11:34:12;;;;;;;48.22;21.83;;;5.90;99.90;;;;;;4967001;28;20201;-68
2022/01/25 11:36:44;;;;;;;46.08;20.55;;;6.00;99.90;;;;;;4954211;28;20208;-66
2022/01/25 11:39:11;;;;;;;54.47;25.00;;;6.00;99.90;;;;;;4959800;28;20204;-67
2022/01/25 11:41:42;;;;;;;47.92;22.05;;;6.00;99.90;;;;;;4973395;28;20319;-68
2022/01/25 11:44:11;;;;;;;50.83;21.98;;;6.00;99.90;;;;;;4960973;28;20630;-67
2022/01/25 11:46:39;;;;;;;52.35;23.33;;;6.00;99.90;;;;;;4952976;28;20206;-68
2022/01/25 11:49:10;;;;;;;50.15;21.52;;;6.00;99.90;;;;;;4952847;28;20201;-67
2022/01/25 11:51:37;;;;;;;55.47;21.88;;;6.00;99.90;;;;;;4965778;28;20245;-67
2022/01/25 11:54:05;;;;;;;47.05;19.83;;;6.00;99.90;;;;;;4963072;28;20232;-67
2022/01/25 11:56:32;;;;;;;46.03;20.67;;;6.00;99.90;;;;;;4993048;23;20233;-69
2022/01/25 11:59:01;;;;;;;39.72;19.48;;;6.00;99.90;;;;;;4972746;28;20212;-70
2022/01/25 12:01:28;;;;;;;46.67;21.17;;;6.00;99.90;;;;;;4972865;28;20235;-69
2022/01/25 12:03:58;;;;;;;41.25;19.88;;;6.00;99.90;;;;;;4972753;28;20271;-69
2022/01/25 12:06:28;;;;;;;47.08;19.15;;;6.00;99.90;;;;;;4972541;28;20335;-69
2022/01/25 12:09:16;;;;;;;49.65;20.77;;;6.10;99.90;;;;;;4972221;28;20660;-70
2022/01/25 12:11:46;;;;;;;47.63;20.13;;;6.10;99.90;;;;;;4972304;28;20378;-69
2022/01/25 12:14:18;;;;;;;45.95;22.25;;;6.10;99.90;;;;;;4972397;28;20223;-70
2022/01/25 12:16:47;;;;;;;41.50;20.10;;;6.20;99.90;;;;;;4972174;28;20300;-70
2022/01/25 12:19:15;;;;;;;44.67;21.27;;;6.20;99.90;;;;;;4972361;28;20290;-70
2022/01/25 12:22:03;;;;;;;50.15;21.35;;;6.20;99.90;;;;;;4972136;28;20213;-69
2022/01/25 12:24:35;;;;;;;53.33;22.85;;;6.20;99.90;;;;;;4972049;28;20196;-69
2022/01/25 12:27:08;;;;;;;39.28;18.98;;;6.30;99.90;;;;;;4972270;28;20649;-69
2022/01/25 12:29:41;;;;;;;38.88;19.63;;;6.20;99.90;;;;;;4972120;28;20189;-68
2022/01/25 12:32:26;;;;;;;45.33;19.52;;;6.20;99.90;;;;;;4965199;28;20240;-69
2022/01/25 12:35:02;;;;;;;45.17;20.40;;;6.30;99.90;;;;;;4965464;28;20586;-69
2022/01/25 12:37:55;;;;;;;46.03;21.10;;;6.30;99.90;;;;;;4960382;28;20267;-70
2022/01/25 12:40:38;;;;;;;34.65;18.00;;;6.30;99.90;;;;;;4953032;28;20739;-69
2022/01/25 12:43:07;;;;;;;35.53;18.15;;;6.30;99.90;;;;;;4953275;28;20681;-70
2022/01/25 12:45:40;;;;;;;48.92;19.30;;;6.30;99.90;;;;;;4952780;28;20233;-69
2022/01/25 12:48:09;;;;;;;39.10;17.60;;;6.30;99.90;;;;;;4952902;28;20205;-69
2022/01/25 12:50:37;;;;;;;38.90;17.65;;;6.30;99.90;;;;;;4952213;28;20654;-69
2022/01/25 12:53:06;;;;;;;40.58;17.25;;;6.30;99.90;;;;;;4958154;28;20220;-70
2022/01/25 12:55:35;;;;;;;38.67;18.17;;;6.30;99.90;;;;;;4960837;28;20716;-70
2022/01/25 12:58:03;;;;;;;37.85;18.20;;;6.30;99.90;;;;;;4959115;28;20705;-69
2022/01/25 13:00:32;;;;;;;37.47;18.40;;;6.30;99.90;;;;;;4975381;28;20235;-69
2022/01/25 13:03:14;;;;;;;32.60;16.25;;;6.30;99.90;;;;;;4975445;28;20200;-68
2022/01/25 13:05:42;;;;;;;35.88;18.58;;;6.40;99.90;;;;;;4955978;28;20233;-68
2022/01/25 13:08:18;;;;;;;36.10;16.45;;;6.40;99.90;;;;;;4956198;28;20300;-68
2022/01/25 13:10:45;;;;;;;34.38;16.40;;;6.40;99.90;;;;;;4956110;28;20609;-68
2022/01/25 13:13:23;;;;;;;36.25;16.73;;;6.40;99.90;;;;;;4955815;28;20232;-68
2022/01/25 13:15:56;;;;;;;33.40;16.05;;;6.40;99.90;;;;;;4955769;28;20235;-69
2022/01/25 13:18:27;;;;;;;35.95;16.77;;;6.50;99.90;;;;;;4956065;28;20556;-69
2022/01/25 13:21:04;;;;;;;39.45;15.82;;;6.50;99.90;;;;;;4955834;28;20194;-69
2022/01/25 13:23:31;;;;;;;33.30;17.95;;;6.50;99.90;;;;;;4955978;28;20256;-69
2022/01/25 13:26:08;;;;;;;39.30;16.80;;;6.50;99.90;;;;;;4956141;28;20604;-70
2022/01/25 13:28:39;;;;;;;34.53;15.80;;;6.50;99.90;;;;;;4961337;28;20271;-70
2022/01/25 13:31:10;;;;;;;33.70;15.63;;;6.50;99.90;;;;;;4958002;28;20201;-68
2022/01/25 13:33:38;;;;;;;39.10;16.50;;;6.50;99.90;;;;;;4972540;28;20253;-69
2022/01/25 13:36:08;;;;;;;30.80;15.13;;;6.50;99.90;;;;;;4965611;28;20237;-69
2022/01/25 13:38:39;;;;;;;37.10;16.85;;;6.50;99.90;;;;;;4955451;28;20213;-70
2022/01/25 13:41:18;;;;;;;32.90;15.93;;;6.50;99.90;;;;;;4955414;28;20205;-69
2022/01/25 13:46:33;;;;;;;40.28;17.98;;;6.40;99.90;;;;;;4972133;28;20235;-70
2022/01/25 13:49:04;;;;;;;27.10;14.43;;;6.40;99.90;;;;;;4955173;28;20600;-68
2022/01/25 13:51:38;;;;;;;42.57;20.63;;;6.40;99.90;;;;;;4968586;28;20462;-69
2022/01/25 13:54:05;;;;;;;37.50;17.42;;;6.40;99.90;;;;;;4974690;28;20467;-69
2022/01/25 13:56:34;;;;;;;32.72;17.38;;;6.40;99.90;;;;;;4974069;28;20308;-69
2022/01/25 13:59:03;;;;;;;38.97;16.23;;;6.40;99.90;;;;;;4974303;28;20856;-68
2022/01/25 14:01:32;;;;;;;33.20;16.48;;;6.40;99.90;;;;;;4973656;28;20649;-68
2022/01/25 14:04:02;;;;;;;40.33;17.83;;;6.40;99.90;;;;;;4974944;28;20205;-69
2022/01/25 14:06:30;;;;;;;30.80;16.30;;;6.40;99.90;;;;;;4971316;28;20224;-69
2022/01/25 14:09:03;;;;;;;38.45;16.35;;;6.40;99.90;;;;;;4966810;28;20217;-69
2022/01/25 14:11:39;;;;;;;41.33;18.73;;;6.40;99.90;;;;;;4962759;28;20215;-69
2022/01/25 14:25:28;;;;;;;32.35;17.95;;;6.40;99.90;;;;;;4956097;28;20276;-69
2022/01/25 14:27:57;;;;;;;29.13;14.90;;;6.40;99.90;;;;;;4955246;28;20248;-70
2022/01/25 14:30:24;;;;;;;41.30;17.40;;;6.40;99.90;;;;;;4954788;28;20215;-69
2022/01/25 14:33:01;;;;;;;35.50;16.70;;;6.40;99.90;;;;;;4955600;28;20240;-69
2022/01/25 14:35:30;;;;;;;28.05;13.40;;;6.30;99.90;;;;;;4957595;28;20233;-70
2022/01/25 14:37:57;;;;;;;32.03;15.10;;;6.30;99.90;;;;;;4967680;28;20729;-68
2022/01/25 14:40:24;;;;;;;31.95;16.08;;;6.30;99.90;;;;;;4955376;28;20205;-68
2022/01/25 14:42:51;;;;;;;28.25;16.55;;;6.30;99.90;;;;;;4954463;28;20249;-68
2022/01/25 14:45:21;;;;;;;29.90;16.90;;;6.30;99.90;;;;;;4954671;28;20229;-68
2022/01/25 14:47:49;;;;;;;34.03;17.55;;;6.30;99.90;;;;;;4954527;28;20280;-68
2022/01/25 14:50:18;;;;;;;38.25;18.77;;;6.30;99.90;;;;;;4961823;28;20205;-69
2022/01/25 14:53:02;;;;;;;36.38;17.05;;;6.30;99.90;;;;;;4966792;28;20228;-68
2022/01/25 14:55:30;;;;;;;33.92;16.92;;;6.30;99.90;;;;;;4972785;28;20602;-68
2022/01/25 14:58:10;;;;;;;29.42;16.33;;;6.30;99.90;;;;;;4969543;28;20210;-68
2022/01/25 15:00:45;;;;;;;31.95;15.40;;;6.30;99.90;;;;;;4955224;28;20257;-69
2022/01/25 15:03:11;;;;;;;31.95;15.68;;;6.30;99.90;;;;;;4959186;28;20195;-68
2022/01/25 15:05:38;;;;;;;28.00;15.15;;;6.20;99.90;;;;;;4972539;28;20224;-69
2022/01/25 15:08:06;;;;;;;32.10;14.68;;;6.20;99.90;;;;;;4953550;28;20264;-69
2022/01/25 15:10:34;;;;;;;35.83;16.10;;;6.20;99.90;;;;;;4963541;28;20208;-68
2022/01/25 15:13:03;;;;;;;33.28;15.23;;;6.20;99.90;;;;;;4972848;28;20240;-69
2022/01/25 15:15:45;;;;;;;32.95;14.68;;;6.20;99.90;;;;;;4966226;28;20783;-67
2022/01/25 15:18:12;;;;;;;28.27;13.82;;;6.20;99.90;;;;;;4970914;28;20247;-68
2022/01/25 15:20:39;;;;;;;30.88;16.40;;;6.20;99.90;;;;;;4974021;28;20212;-68
2022/01/25 15:23:07;;;;;;;35.03;16.88;;;6.20;99.90;;;;;;4957119;28;20206;-68
2022/01/25 15:25:35;;;;;;;27.80;14.80;;;6.20;99.90;;;;;;4957082;28;20236;-68
2022/01/25 15:28:02;;;;;;;31.20;15.60;;;6.20;99.90;;;;;;4963848;28;20291;-68
2022/01/25 15:30:29;;;;;;;31.20;13.60;;;6.20;99.90;;;;;;4964517;28;20213;-69
2022/01/25 15:32:56;;;;;;;24.38;13.70;;;6.20;99.90;;;;;;4969619;28;20213;-68
2022/01/25 15:35:24;;;;;;;28.40;15.52;;;6.20;99.90;;;;;;4964998;28;20231;-69
2022/01/25 15:37:51;;;;;;;27.48;15.32;;;6.10;99.90;;;;;;4972429;28;20243;-68
2022/01/25 15:40:19;;;;;;;27.90;13.27;;;6.10;99.90;;;;;;4972123;28;20278;-69
2022/01/25 15:42:46;;;;;;;19.20;10.75;;;6.10;99.90;;;;;;4954233;28;20213;-69
2022/01/25 15:45:25;;;;;;;20.02;10.73;;;6.10;99.90;;;;;;4954024;28;20233;-68
2022/01/25 15:47:51;;;;;;;25.52;13.18;;;6.00;99.90;;;;;;4952919;28;20284;-68
2022/01/25 15:50:20;;;;;;;18.90;9.98;;;6.10;99.90;;;;;;4953472;28;20221;-68
2022/01/25 15:52:47;;;;;;;18.55;10.70;;;6.00;99.90;;;;;;4953103;28;20228;-68
2022/01/25 15:55:14;;;;;;;16.42;10.63;;;6.00;99.90;;;;;;4952750;28;20233;-68
2022/01/25 15:57:42;;;;;;;24.50;11.05;;;6.00;99.90;;;;;;4953467;28;20213;-68
2022/01/25 16:00:10;;;;;;;19.20;11.50;;;6.00;99.90;;;;;;4952735;28;20209;-69
2022/01/25 16:02:36;;;;;;;23.23;11.55;;;6.00;99.90;;;;;;4953938;28;20272;-69
2022/01/25 16:05:04;;;;;;;25.52;12.57;;;6.00;99.90;;;;;;4952671;28;20718;-69
2022/01/25 16:07:31;;;;;;;21.92;12.25;;;6.00;99.90;;;;;;4953025;28;20231;-68
2022/01/25 16:09:58;;;;;;;26.13;14.95;;;5.90;99.90;;;;;;4958569;28;20251;-68
2022/01/25 16:12:26;;;;;;;20.00;10.80;;;5.90;99.90;;;;;;4972377;28;20229;-68
2022/01/25 16:14:55;;;;;;;20.50;11.18;;;5.90;99.90;;;;;;4972101;28;20232;-69
2022/01/25 16:17:22;;;;;;;15.02;9.65;;;5.90;99.90;;;;;;4972304;28;20263;-68
2022/01/25 16:19:49;;;;;;;16.23;8.40;;;5.90;99.90;;;;;;4972096;28;20219;-68
2022/01/25 16:22:15;;;;;;;17.15;10.32;;;5.90;99.90;;;;;;4972280;28;20662;-68
2022/01/25 16:24:42;;;;;;;20.08;11.07;;;5.90;99.90;;;;;;4972069;28;20663;-70
2022/01/25 16:27:09;;;;;;;21.33;9.80;;;5.90;99.90;;;;;;4972298;28;20286;-67
2022/01/25 16:29:36;;;;;;;20.80;9.65;;;5.90;99.90;;;;;;4971386;28;20212;-69
2022/01/25 16:32:05;;;;;;;16.08;11.07;;;5.90;99.90;;;;;;4971934;28;20585;-70
2022/01/25 16:34:31;;;;;;;20.60;10.43;;;5.90;99.90;;;;;;4972170;28;20216;-69
2022/01/25 16:36:58;;;;;;;19.83;10.93;;;5.80;99.90;;;;;;4971995;28;20216;-69
2022/01/25 16:39:25;;;;;;;20.48;11.50;;;5.90;99.90;;;;;;4970574;28;20212;-69
2022/01/25 16:41:52;;;;;;;21.45;10.85;;;5.90;99.90;;;;;;4952601;28;20217;-70
2022/01/25 16:44:19;;;;;;;23.88;10.00;;;5.90;99.90;;;;;;4952741;28;20209;-70
2022/01/25 16:46:46;;;;;;;22.70;9.52;;;5.80;99.90;;;;;;4953141;28;20797;-70
2022/01/25 16:49:14;;;;;;;21.50;12.38;;;5.80;99.90;;;;;;4959927;28;20542;-68
2022/01/25 16:51:41;;;;;;;20.08;10.27;;;5.90;99.90;;;;;;4957844;28;20658;-68
2022/01/25 16:54:08;;;;;;;24.02;10.93;;;5.80;99.90;;;;;;4964547;28;20224;-67
2022/01/25 16:56:35;;;;;;;26.20;14.18;;;5.80;99.90;;;;;;4971067;28;20647;-67
2022/01/25 16:59:06;;;;;;;17.88;12.13;;;5.80;99.90;;;;;;4962554;28;20309;-68
2022/01/25 17:01:34;;;;;;;22.35;12.52;;;5.80;99.90;;;;;;4952713;28;20268;-69
2022/01/25 17:04:01;;;;;;;21.08;11.10;;;5.80;99.90;;;;;;4954232;28;20308;-68
2022/01/25 17:06:29;;;;;;;17.73;10.98;;;5.80;99.90;;;;;;4965224;28;20282;-69
2022/01/25 17:08:56;;;;;;;20.88;10.23;;;5.80;99.90;;;;;;4967506;28;20209;-69
2022/01/25 17:11:22;;;;;;;22.17;11.07;;;5.80;99.90;;;;;;4964906;28;20203;-69
2022/01/25 17:13:49;;;;;;;30.15;12.75;;;5.80;99.90;;;;;;4971424;28;20236;-69
2022/01/25 17:16:17;;;;;;;26.33;12.27;;;5.80;99.90;;;;;;4970540;28;20701;-69
2022/01/25 17:18:44;;;;;;;26.40;12.80;;;5.80;99.90;;;;;;4964866;28;20205;-69
2022/01/25 17:21:11;;;;;;;23.38;11.82;;;5.80;99.90;;;;;;4954042;28;20296;-68
2022/01/25 17:23:39;;;;;;;20.70;11.05;;;5.80;99.90;;;;;;4960910;28;20254;-69
2022/01/25 17:26:06;;;;;;;26.98;12.43;;;5.80;99.90;;;;;;4971564;28;20743;-68
2022/01/25 17:28:32;;;;;;;25.52;13.75;;;5.80;99.90;;;;;;4957424;28;20252;-70
2022/01/25 17:30:59;;;;;;;22.08;11.43;;;5.80;99.90;;;;;;4966024;28;20256;-68
2022/01/25 17:33:27;;;;;;;25.27;11.85;;;5.80;99.90;;;;;;4971304;28;20224;-69
2022/01/25 17:35:54;;;;;;;30.55;12.98;;;5.80;99.90;;;;;;4957572;28;20299;-69
2022/01/25 17:38:20;;;;;;;25.85;13.80;;;5.80;99.90;;;;;;4970115;28;20622;-69
2022/01/25 17:40:49;;;;;;;26.52;13.93;;;5.80;99.90;;;;;;4971205;28;20315;-69
2022/01/25 17:43:16;;;;;;;24.08;11.55;;;5.80;99.90;;;;;;4974637;28;20296;-68
2022/01/25 17:45:47;;;;;;;22.95;12.85;;;5.70;99.90;;;;;;4971522;28;20231;-68
2022/01/25 17:48:14;;;;;;;26.35;13.55;;;5.80;99.90;;;;;;4972775;28;20217;-68
2022/01/25 17:50:41;;;;;;;24.02;12.93;;;5.80;99.90;;;;;;4969964;28;20364;-69
2022/01/25 17:53:07;;;;;;;35.13;14.68;;;5.80;99.90;;;;;;4974032;28;20283;-68
2022/01/25 17:55:34;;;;;;;26.08;14.43;;;5.80;99.90;;;;;;4968940;28;20248;-68
2022/01/25 17:58:02;;;;;;;28.17;15.40;;;5.80;99.90;;;;;;4971349;28;20208;-69
2022/01/25 18:00:29;;;;;;;26.92;13.68;;;5.80;99.90;;;;;;4979698;28;20673;-69
2022/01/25 18:02:55;;;;;;;25.45;13.55;;;5.80;99.90;;;;;;4973394;28;20204;-68
2022/01/25 18:05:22;;;;;;;25.67;14.20;;;5.80;99.90;;;;;;4973437;28;20291;-68
2022/01/25 18:07:49;;;;;;;27.63;14.55;;;5.80;99.90;;;;;;4968526;28;20267;-69
2022/01/25 18:10:15;;;;;;;33.35;16.05;;;5.70;99.90;;;;;;4969976;28;20271;-68